createdAt,value
2022-09-28T00:00:29.037Z,67.39
2022-09-28T00:02:58.454Z,67.24
2022-09-28T00:05:28.374Z,67.46
2022-09-28T00:07:55.570Z,67.67
2022-09-28T00:10:22.583Z,67.73
2022-09-28T00:12:50.251Z,67.41
2022-09-28T00:15:16.727Z,67.66
2022-09-28T00:17:46.005Z,67.76
2022-09-28T00:20:12.433Z,67.87
2022-09-28T00:22:39.081Z,68.00
2022-09-28T00:25:06.626Z,68.11
2022-09-28T00:27:32.667Z,67.70
2022-09-28T00:29:59.541Z,67.76
2022-09-28T00:32:26.247Z,67.99
2022-09-28T00:34:52.282Z,67.97
2022-09-28T00:37:19.673Z,68.24
2022-09-28T00:39:48.220Z,68.27
2022-09-28T00:42:18.321Z,68.42
2022-09-28T00:44:52.760Z,68.49
2022-09-28T00:47:39.030Z,68.50
2022-09-28T00:50:12.046Z,68.82
2022-09-28T00:53:06.297Z,68.78
2022-09-28T00:55:56.666Z,69.32
2022-09-28T00:58:34.738Z,69.49
2022-09-28T01:01:02.021Z,68.99
2022-09-28T01:03:28.776Z,68.99
2022-09-28T01:05:58.258Z,68.99
2022-09-28T01:08:27.254Z,68.94
2022-09-28T01:10:53.379Z,69.42
2022-09-28T01:13:21.319Z,69.47
2022-09-28T01:16:17.021Z,69.50
2022-09-28T01:19:17.697Z,69.85
2022-09-28T01:21:55.652Z,70.16
2022-09-28T01:24:32.324Z,69.99
2022-09-28T01:27:06.968Z,69.75
2022-09-28T01:29:45.005Z,70.05
2022-09-28T01:32:22.539Z,69.85
2022-09-28T01:34:57.506Z,69.81
2022-09-28T01:37:41.502Z,69.98
2022-09-28T01:40:10.439Z,69.79
2022-09-28T01:42:39.419Z,70.05
2022-09-28T01:45:14.041Z,69.79
2022-09-28T01:47:41.041Z,70.11
2022-09-28T01:50:14.894Z,69.93
2022-09-28T01:52:51.917Z,70.22
2022-09-28T01:55:30.968Z,70.22
2022-09-28T01:58:08.723Z,70.35
2022-09-28T02:00:38.990Z,70.36
2022-09-28T02:03:25.640Z,70.18
2022-09-28T02:05:59.511Z,70.17
2022-09-28T02:08:43.224Z,70.23
2022-09-28T02:11:18.923Z,70.42
2022-09-28T02:14:14.862Z,70.51
2022-09-28T02:16:47.477Z,70.46
2022-09-28T02:19:25.756Z,70.59
2022-09-28T02:22:12.952Z,70.71
2022-09-28T02:24:42.034Z,71.14
2022-09-28T02:27:29.905Z,70.74
2022-09-28T02:29:55.961Z,70.96
2022-09-28T02:32:25.579Z,70.70
2022-09-28T02:34:51.790Z,70.66
2022-09-28T02:37:17.882Z,70.36
2022-09-28T02:39:43.895Z,70.53
2022-09-28T02:42:37.274Z,70.56
2022-09-28T02:45:12.382Z,70.72
2022-09-28T02:47:58.249Z,70.85
2022-09-28T02:51:05.784Z,71.27
2022-09-28T02:53:54.691Z,71.23
2022-09-28T02:56:38.075Z,71.51
2022-09-28T02:59:31.882Z,71.19
2022-09-28T03:02:16.483Z,71.29
2022-09-28T03:04:57.865Z,71.53
2022-09-28T03:07:33.810Z,71.20
2022-09-28T03:10:13.229Z,71.31
2022-09-28T03:12:39.993Z,71.59
2022-09-28T03:15:11.148Z,71.81
2022-09-28T03:17:37.445Z,71.80
2022-09-28T03:20:04.794Z,71.73
2022-09-28T03:22:31.033Z,71.62
2022-09-28T03:24:57.122Z,71.63
2022-09-28T03:27:23.145Z,71.63
2022-09-28T03:29:50.004Z,71.78
2022-09-28T03:32:16.267Z,72.00
2022-09-28T03:34:42.374Z,71.83
2022-09-28T03:37:08.424Z,71.78
2022-09-28T03:39:34.562Z,71.93
2022-09-28T03:42:00.823Z,72.02
2022-09-28T03:44:26.838Z,71.96
2022-09-28T03:46:52.900Z,72.03
2022-09-28T03:49:18.939Z,71.99
2022-09-28T03:51:45.013Z,71.97
2022-09-28T03:54:11.225Z,72.02
2022-09-28T03:56:37.246Z,72.06
2022-09-28T03:59:04.125Z,72.22
2022-09-28T04:01:30.647Z,71.82
2022-09-28T04:03:56.766Z,71.92
2022-09-28T04:06:24.148Z,72.11
2022-09-28T04:08:50.260Z,72.00
2022-09-28T04:11:16.950Z,72.37
2022-09-28T04:13:43.628Z,72.18
2022-09-28T04:16:11.204Z,72.22
2022-09-28T04:18:38.370Z,72.40
2022-09-28T04:21:11.591Z,72.42
2022-09-28T04:23:39.330Z,72.55
2022-09-28T04:26:08.187Z,72.26
2022-09-28T04:28:52.920Z,72.00
2022-09-28T04:31:23.996Z,72.17
2022-09-28T04:33:50.193Z,72.40
2022-09-28T04:36:17.473Z,72.36
2022-09-28T04:38:58.842Z,72.43
2022-09-28T04:41:26.027Z,72.83
2022-09-28T04:43:52.155Z,72.41
2022-09-28T04:46:19.577Z,72.65
2022-09-28T04:48:46.270Z,72.45
2022-09-28T04:51:12.370Z,72.42
2022-09-28T04:53:38.428Z,72.19
2022-09-28T04:56:09.458Z,72.24
2022-09-28T04:58:35.606Z,72.47
2022-09-28T05:01:05.373Z,72.72
2022-09-28T05:03:32.197Z,72.58
2022-09-28T05:05:58.511Z,72.66
2022-09-28T05:08:25.783Z,72.88
2022-09-28T05:11:04.147Z,72.73
2022-09-28T05:13:30.927Z,72.71
2022-09-28T05:16:03.043Z,72.49
2022-09-28T05:18:31.319Z,72.16
2022-09-28T05:20:57.435Z,72.19
2022-09-28T05:23:23.593Z,72.38
2022-09-28T05:25:50.602Z,72.55
2022-09-28T05:28:24.731Z,72.62
2022-09-28T05:30:51.721Z,72.51
2022-09-28T05:33:17.850Z,72.52
2022-09-28T05:35:43.879Z,72.55
2022-09-28T05:38:09.993Z,72.48
2022-09-28T05:40:36.059Z,72.15
2022-09-28T05:43:02.147Z,71.82
2022-09-28T05:45:29.937Z,71.51
2022-09-28T05:47:56.430Z,71.88
2022-09-28T05:50:22.693Z,71.49
2022-09-28T05:53:07.804Z,71.31
2022-09-28T05:55:35.536Z,71.31
2022-09-28T05:58:04.548Z,70.84
2022-09-28T06:00:32.406Z,70.76
2022-09-28T06:03:08.922Z,70.64
2022-09-28T06:05:37.065Z,70.68
2022-09-28T06:08:05.342Z,70.48
2022-09-28T06:10:32.890Z,70.61
2022-09-28T06:12:59.693Z,70.89
2022-09-28T06:15:28.824Z,71.00
2022-09-28T06:18:17.163Z,71.06
2022-09-28T06:20:43.390Z,71.11
2022-09-28T06:23:11.828Z,71.22
2022-09-28T06:25:38.333Z,70.92
2022-09-28T06:28:13.491Z,70.81
2022-09-28T06:30:40.780Z,71.04
2022-09-28T06:33:10.817Z,70.89
2022-09-28T06:35:36.926Z,70.72
2022-09-28T06:38:03.260Z,70.70
2022-09-28T06:40:29.764Z,70.62
2022-09-28T06:43:14.824Z,70.53
2022-09-28T06:45:42.008Z,70.01
2022-09-28T06:48:10.092Z,70.03
2022-09-28T06:50:40.091Z,69.80
2022-09-28T06:53:11.440Z,69.85
2022-09-28T06:55:49.272Z,69.60
2022-09-28T06:58:19.227Z,69.21
2022-09-28T07:00:47.234Z,69.29
2022-09-28T07:03:18.070Z,69.06
2022-09-28T07:05:46.964Z,68.99
2022-09-28T07:08:14.042Z,68.83
2022-09-28T07:10:43.065Z,68.89
2022-09-28T07:13:20.202Z,69.12
2022-09-28T07:15:57.358Z,68.68
2022-09-28T07:18:23.797Z,68.85
2022-09-28T07:20:54.279Z,68.27
2022-09-28T07:23:20.873Z,68.26
2022-09-28T07:25:48.377Z,68.23
2022-09-28T07:28:15.402Z,67.95
2022-09-28T07:30:44.063Z,67.70
2022-09-28T07:33:14.064Z,68.01
2022-09-28T07:35:42.225Z,67.64
2022-09-28T07:38:10.036Z,67.82
2022-09-28T07:40:54.746Z,67.68
2022-09-28T07:43:22.090Z,67.55
2022-09-28T07:45:51.797Z,68.12
2022-09-28T07:48:18.565Z,68.01
2022-09-28T07:50:52.974Z,67.88
2022-09-28T07:53:21.000Z,67.70
2022-09-28T07:55:55.721Z,67.52
2022-09-28T07:58:22.568Z,66.58
2022-09-28T08:00:50.000Z,66.77
2022-09-28T08:03:18.153Z,66.96
2022-09-28T08:05:46.968Z,66.91
2022-09-28T08:08:13.743Z,67.12
2022-09-28T08:10:46.558Z,67.04
2022-09-28T08:13:15.831Z,67.10
2022-09-28T08:15:42.026Z,67.65
2022-09-28T08:18:08.161Z,67.13
2022-09-28T08:20:52.913Z,67.47
2022-09-28T08:23:20.066Z,67.19
2022-09-28T08:25:52.182Z,66.98
2022-09-28T08:28:18.254Z,66.80
2022-09-28T08:30:46.056Z,66.47
2022-09-28T08:33:13.485Z,66.07
2022-09-28T08:35:40.774Z,65.90
2022-09-28T08:38:08.206Z,65.70
2022-09-28T08:40:42.400Z,65.48
2022-09-28T08:43:39.566Z,65.86
2022-09-28T08:46:08.505Z,65.93
2022-09-28T08:49:13.056Z,66.01
2022-09-28T08:51:44.271Z,66.01
2022-09-28T08:54:48.827Z,65.61
2022-09-28T08:57:26.202Z,66.34
2022-09-28T08:59:55.555Z,66.57
2022-09-28T09:02:24.962Z,66.48
2022-09-28T09:04:52.292Z,66.57
2022-09-28T09:07:33.638Z,66.51
2022-09-28T09:10:30.261Z,66.10
2022-09-28T09:13:13.348Z,65.80
2022-09-28T09:15:59.045Z,65.96
2022-09-28T09:18:35.740Z,65.93
2022-09-28T09:21:15.109Z,65.86
2022-09-28T09:24:10.371Z,65.56
2022-09-28T09:26:40.155Z,65.80
2022-09-28T09:29:15.339Z,65.89
2022-09-28T09:31:50.083Z,65.78
2022-09-28T09:34:31.680Z,65.85
2022-09-28T09:36:57.638Z,65.80
2022-09-28T09:39:40.847Z,65.62
2022-09-28T09:42:26.457Z,66.11
2022-09-28T09:44:56.568Z,65.66
2022-09-28T09:47:39.067Z,65.62
2022-09-28T09:50:12.705Z,65.15
2022-09-28T09:52:57.002Z,65.24
2022-09-28T09:55:46.592Z,65.52
2022-09-28T09:58:15.542Z,65.12
2022-09-28T10:00:45.198Z,65.34
2022-09-28T10:03:26.465Z,65.25
2022-09-28T10:06:16.417Z,65.28
2022-09-28T10:08:48.556Z,65.28
2022-09-28T10:11:20.128Z,65.10
2022-09-28T10:13:49.063Z,65.44
2022-09-28T10:16:18.853Z,65.05
2022-09-28T10:18:45.167Z,65.32
2022-09-28T10:21:17.261Z,65.64
2022-09-28T10:23:45.370Z,65.59
2022-09-28T10:26:25.075Z,65.57
2022-09-28T10:29:01.260Z,65.18
2022-09-28T10:31:42.491Z,65.21
2022-09-28T10:34:14.293Z,65.56
2022-09-28T10:36:57.966Z,65.55
2022-09-28T10:39:44.184Z,64.96
2022-09-28T10:42:17.712Z,65.26
2022-09-28T10:44:58.759Z,65.34
2022-09-28T10:47:30.152Z,65.26
2022-09-28T10:49:56.449Z,65.32
2022-09-28T10:52:38.377Z,65.27
2022-09-28T10:55:26.057Z,64.78
2022-09-28T10:57:52.770Z,65.57
2022-09-28T11:00:32.900Z,65.96
2022-09-28T11:03:00.483Z,66.09
2022-09-28T11:05:27.622Z,65.86
2022-09-28T11:07:56.551Z,65.57
2022-09-28T11:10:32.371Z,65.59
2022-09-28T11:12:59.618Z,65.32
2022-09-28T11:15:30.298Z,64.62
2022-09-28T11:18:07.128Z,64.96
2022-09-28T11:20:35.146Z,64.76
2022-09-28T11:23:18.575Z,64.50
2022-09-28T11:25:56.933Z,64.33
2022-09-28T11:28:28.721Z,64.72
2022-09-28T11:30:54.980Z,65.02
2022-09-28T11:33:35.497Z,64.40
2022-09-28T11:36:13.446Z,64.66
2022-09-28T11:39:05.917Z,64.49
2022-09-28T11:41:47.636Z,64.21
2022-09-28T11:44:36.943Z,64.29
2022-09-28T11:47:15.177Z,63.99
2022-09-28T11:49:45.185Z,63.13
2022-09-28T11:52:20.821Z,63.27
2022-09-28T11:54:59.039Z,63.21
2022-09-28T11:57:30.206Z,62.30
2022-09-28T11:59:58.845Z,62.48
2022-09-28T12:02:33.594Z,62.87
2022-09-28T12:05:21.466Z,61.99
2022-09-28T12:07:59.834Z,62.50
2022-09-28T12:10:44.755Z,61.96
2022-09-28T12:13:19.055Z,60.90
2022-09-28T12:16:17.470Z,61.42
2022-09-28T12:18:46.837Z,61.40
2022-09-28T12:21:30.095Z,61.80
2022-09-28T12:24:06.543Z,61.39
2022-09-28T12:26:46.645Z,61.51
2022-09-28T12:29:18.215Z,60.64
2022-09-28T12:32:07.618Z,60.81
2022-09-28T12:34:33.951Z,60.87
2022-09-28T12:37:22.100Z,60.86
2022-09-28T12:40:00.661Z,60.83
2022-09-28T12:42:51.036Z,60.67
2022-09-28T12:45:17.929Z,60.87
2022-09-28T12:48:14.711Z,61.57
2022-09-28T12:51:03.231Z,61.79
2022-09-28T12:53:35.329Z,62.09
2022-09-28T12:56:23.794Z,62.09
2022-09-28T12:59:18.852Z,61.82
2022-09-28T13:01:54.015Z,61.87
2022-09-28T13:04:51.000Z,61.29
2022-09-28T13:07:30.573Z,60.14
2022-09-28T13:10:04.403Z,60.75
2022-09-28T13:12:36.733Z,61.02
2022-09-28T13:15:23.184Z,61.35
2022-09-28T13:17:57.714Z,60.69
2022-09-28T13:20:57.703Z,60.89
2022-09-28T13:23:29.257Z,60.92
2022-09-28T13:26:14.000Z,60.86
2022-09-28T13:28:43.113Z,60.97
2022-09-28T13:31:10.802Z,60.53
2022-09-28T13:33:43.944Z,60.50
2022-09-28T13:36:47.162Z,60.37
2022-09-28T13:39:38.307Z,59.10
2022-09-28T13:42:07.606Z,58.87
2022-09-28T13:44:53.716Z,58.86
2022-09-28T13:47:51.304Z,59.27
2022-09-28T13:50:38.564Z,59.18
2022-09-28T13:53:11.383Z,59.93
2022-09-28T13:55:50.204Z,59.77
2022-09-28T13:58:24.173Z,59.37
2022-09-28T14:00:57.903Z,59.74
2022-09-28T14:03:45.670Z,59.72
2022-09-28T14:06:34.588Z,59.61
2022-09-28T14:09:13.199Z,58.74
2022-09-28T14:11:43.333Z,59.25
2022-09-28T14:14:13.723Z,60.06
2022-09-28T14:16:46.185Z,60.18
2022-09-28T14:19:26.225Z,60.19
2022-09-28T14:22:06.562Z,60.27
2022-09-28T14:24:41.786Z,60.35
2022-09-28T14:27:26.184Z,60.59
2022-09-28T14:30:10.699Z,60.29
2022-09-28T14:33:00.937Z,60.42
2022-09-28T14:35:33.239Z,59.44
2022-09-28T14:38:35.436Z,59.49
2022-09-28T14:41:10.354Z,59.28
2022-09-28T14:43:36.614Z,59.38
2022-09-28T14:46:14.897Z,59.39
2022-09-28T14:48:48.994Z,58.94
2022-09-28T14:51:24.479Z,58.83
2022-09-28T14:54:01.970Z,58.31
2022-09-28T14:56:33.067Z,58.90
2022-09-28T14:59:00.167Z,59.13
2022-09-28T15:01:27.326Z,58.93
2022-09-28T15:04:06.787Z,59.30
2022-09-28T15:06:47.854Z,59.39
2022-09-28T15:09:35.495Z,60.10
2022-09-28T15:12:12.676Z,59.56
2022-09-28T15:15:04.119Z,59.92
2022-09-28T15:17:39.441Z,60.77
2022-09-28T15:20:25.714Z,61.18
2022-09-28T15:22:57.029Z,60.91
2022-09-28T15:25:26.631Z,59.64
2022-09-28T15:28:06.166Z,59.42
2022-09-28T15:30:34.622Z,59.48
2022-09-28T15:33:20.832Z,60.23
2022-09-28T15:36:01.501Z,59.97
2022-09-28T15:38:28.988Z,60.17
2022-09-28T15:40:55.633Z,59.55
2022-09-28T15:43:36.790Z,59.66
2022-09-28T15:46:17.807Z,59.64
2022-09-28T15:48:54.860Z,59.52
2022-09-28T15:51:23.099Z,59.35
2022-09-28T15:54:00.491Z,59.36
2022-09-28T15:56:27.904Z,58.84
2022-09-28T15:59:15.273Z,59.44
2022-09-28T16:01:45.106Z,59.81
2022-09-28T16:04:37.266Z,59.67
2022-09-28T16:07:12.266Z,59.53
2022-09-28T16:10:00.974Z,59.49
2022-09-28T16:12:36.114Z,58.88
2022-09-28T16:15:25.542Z,59.28
2022-09-28T16:17:51.591Z,58.36
2022-09-28T16:20:38.310Z,57.95
2022-09-28T16:23:16.978Z,58.62
2022-09-28T16:26:04.797Z,58.64
2022-09-28T16:28:34.804Z,58.82
2022-09-28T16:31:07.123Z,58.56
2022-09-28T16:33:53.604Z,59.38
2022-09-28T16:36:22.060Z,59.21
2022-09-28T16:38:49.241Z,59.12
2022-09-28T16:41:19.259Z,59.10
2022-09-28T16:43:46.694Z,59.26
2022-09-28T16:46:17.280Z,59.25
2022-09-28T16:48:49.865Z,59.22
2022-09-28T16:51:18.827Z,59.04
2022-09-28T16:54:04.588Z,58.63
2022-09-28T16:56:36.250Z,57.93
2022-09-28T16:59:03.331Z,56.07
2022-09-28T17:01:31.745Z,56.93
2022-09-28T17:03:57.994Z,56.48
2022-09-28T17:06:24.827Z,56.58
2022-09-28T17:08:51.650Z,56.72
2022-09-28T17:11:24.164Z,56.15
2022-09-28T17:13:51.283Z,54.78
2022-09-28T17:16:28.168Z,55.53
2022-09-28T17:19:25.346Z,55.11
2022-09-28T17:21:52.390Z,54.22
2022-09-28T17:24:19.480Z,54.91
2022-09-28T17:26:48.747Z,54.58
2022-09-28T17:29:15.538Z,54.96
2022-09-28T17:31:43.638Z,55.41
2022-09-28T17:34:12.309Z,55.30
2022-09-28T17:36:41.233Z,55.04
2022-09-28T17:39:12.887Z,55.48
2022-09-28T17:41:40.187Z,54.64
2022-09-28T17:44:06.372Z,54.66
2022-09-28T17:46:34.179Z,54.73
2022-09-28T17:49:02.921Z,55.28
2022-09-28T17:51:32.193Z,54.87
2022-09-28T17:54:00.508Z,54.95
2022-09-28T17:56:32.481Z,55.26
2022-09-28T17:59:05.165Z,55.11
2022-09-28T18:01:35.193Z,55.01
2022-09-28T18:04:04.466Z,55.06
2022-09-28T18:06:34.595Z,56.01
2022-09-28T18:09:04.262Z,55.53
2022-09-28T18:11:32.439Z,56.17
2022-09-28T18:13:58.562Z,55.72
2022-09-28T18:16:27.390Z,56.01
2022-09-28T18:18:53.633Z,55.77
2022-09-28T18:21:19.805Z,55.73
2022-09-28T18:23:46.062Z,55.37
2022-09-28T18:26:13.450Z,55.77
2022-09-28T18:28:40.405Z,55.77
2022-09-28T18:31:11.960Z,56.00
2022-09-28T18:33:51.122Z,55.75
2022-09-28T18:36:17.335Z,55.42
2022-09-28T18:38:43.556Z,54.90
2022-09-28T18:41:15.085Z,55.39
2022-09-28T18:43:42.914Z,55.07
2022-09-28T18:46:10.924Z,55.12
2022-09-28T18:48:41.341Z,54.81
2022-09-28T18:51:09.096Z,54.97
2022-09-28T18:53:35.773Z,55.34
2022-09-28T18:56:10.583Z,55.24
2022-09-28T18:58:38.897Z,55.58
2022-09-28T19:01:28.841Z,55.93
2022-09-28T19:03:56.076Z,55.65
2022-09-28T19:06:22.155Z,55.88
2022-09-28T19:08:55.100Z,56.08
2022-09-28T19:11:22.146Z,55.91
2022-09-28T19:13:48.213Z,55.61
2022-09-28T19:16:17.553Z,56.34
2022-09-28T19:18:44.147Z,56.46
2022-09-28T19:21:13.697Z,56.15
2022-09-28T19:23:43.771Z,55.97
2022-09-28T19:26:15.645Z,56.35
2022-09-28T19:28:41.911Z,56.48
2022-09-28T19:31:10.427Z,56.17
2022-09-28T19:33:37.734Z,56.66
2022-09-28T19:36:13.104Z,56.49
2022-09-28T19:38:40.547Z,56.79
2022-09-28T19:41:37.797Z,56.50
2022-09-28T19:44:15.216Z,56.77
2022-09-28T19:46:41.775Z,56.73
2022-09-28T19:49:12.046Z,56.99
2022-09-28T19:51:51.456Z,56.80
2022-09-28T19:54:32.009Z,57.18
2022-09-28T19:57:06.818Z,57.41
2022-09-28T19:59:33.444Z,57.14
2022-09-28T20:02:01.568Z,57.72
2022-09-28T20:04:28.520Z,57.97
2022-09-28T20:06:55.071Z,58.09
2022-09-28T20:09:21.174Z,57.72
2022-09-28T20:11:48.099Z,58.28
2022-09-28T20:14:15.550Z,58.32
2022-09-28T20:16:41.606Z,58.04
2022-09-28T20:19:07.982Z,57.87
2022-09-28T20:21:34.113Z,58.05
2022-09-28T20:24:00.627Z,58.00
2022-09-28T20:26:27.401Z,57.89
2022-09-28T20:28:53.922Z,58.08
2022-09-28T20:31:24.501Z,57.90
2022-09-28T20:33:51.473Z,58.30
2022-09-28T20:36:20.371Z,58.29
2022-09-28T20:38:48.322Z,58.02
2022-09-28T20:41:19.782Z,58.45
2022-09-28T20:43:47.300Z,59.35
2022-09-28T20:46:14.044Z,59.62
2022-09-28T20:48:40.872Z,59.64
2022-09-28T20:51:12.898Z,59.97
2022-09-28T20:53:41.590Z,60.12
2022-09-28T20:56:12.703Z,60.45
2022-09-28T20:58:39.931Z,60.69
2022-09-28T21:01:10.255Z,60.62
2022-09-28T21:03:37.677Z,60.72
2022-09-28T21:06:10.102Z,60.55
2022-09-28T21:08:38.339Z,60.76
2022-09-28T21:11:04.414Z,60.27
2022-09-28T21:13:30.882Z,60.13
2022-09-28T21:16:01.527Z,60.46
2022-09-28T21:18:27.735Z,60.47
2022-09-28T21:20:53.795Z,60.02
2022-09-28T21:23:24.608Z,60.40
2022-09-28T21:26:10.550Z,60.68
2022-09-28T21:28:37.728Z,60.61
2022-09-28T21:31:05.988Z,61.13
2022-09-28T21:33:32.186Z,61.57
2022-09-28T21:36:04.585Z,61.60
2022-09-28T21:38:31.697Z,61.94
2022-09-28T21:40:59.110Z,62.35
2022-09-28T21:43:26.882Z,62.32
2022-09-28T21:45:54.981Z,62.36
2022-09-28T21:48:22.776Z,62.87
2022-09-28T21:51:04.112Z,62.77
2022-09-28T21:53:33.543Z,62.86
2022-09-28T21:56:00.804Z,63.02
2022-09-28T21:58:29.649Z,63.07
2022-09-28T22:01:12.554Z,63.20
2022-09-28T22:03:38.744Z,63.47
2022-09-28T22:06:05.933Z,63.32
2022-09-28T22:08:33.085Z,63.30
2022-09-28T22:11:07.711Z,63.54
2022-09-28T22:13:36.919Z,63.55
2022-09-28T22:16:03.191Z,63.61
2022-09-28T22:18:30.813Z,63.78
2022-09-28T22:21:15.155Z,63.93
2022-09-28T22:23:41.730Z,64.13
2022-09-28T22:26:17.402Z,64.14
2022-09-28T22:28:49.015Z,64.42
2022-09-28T22:31:17.354Z,64.75
2022-09-28T22:33:43.678Z,64.91
2022-09-28T22:36:10.611Z,65.01
2022-09-28T22:38:37.382Z,65.17
2022-09-28T22:41:03.877Z,65.11
2022-09-28T22:43:30.718Z,65.21
2022-09-28T22:46:05.745Z,65.25
2022-09-28T22:48:32.873Z,65.74
2022-09-28T22:50:59.043Z,65.45
2022-09-28T22:53:25.155Z,65.64
2022-09-28T22:55:51.463Z,65.75
2022-09-28T22:58:17.918Z,65.77
2022-09-28T23:00:44.059Z,65.85
2022-09-28T23:03:10.296Z,65.88
2022-09-28T23:05:36.503Z,66.00
2022-09-28T23:08:02.791Z,65.88
2022-09-28T23:10:29.270Z,66.13
2022-09-28T23:12:55.934Z,65.87
2022-09-28T23:15:22.231Z,65.84
2022-09-28T23:17:52.454Z,66.00
2022-09-28T23:20:19.963Z,66.14
2022-09-28T23:22:47.433Z,65.86
2022-09-28T23:25:14.994Z,65.91
2022-09-28T23:27:46.010Z,65.75
2022-09-28T23:30:12.268Z,65.91
2022-09-28T23:32:38.376Z,66.02
2022-09-28T23:35:04.884Z,65.71
2022-09-28T23:37:30.958Z,65.79
2022-09-28T23:39:57.060Z,65.69
2022-09-28T23:42:23.091Z,65.68
2022-09-28T23:44:49.139Z,65.63
2022-09-28T23:47:15.303Z,65.66
2022-09-28T23:49:41.372Z,66.12
2022-09-28T23:52:07.442Z,65.96
2022-09-28T23:54:33.581Z,65.80
2022-09-28T23:56:59.625Z,66.19
2022-09-28T23:59:25.660Z,66.53
